Daisinmaru No.11 — JK5352 — position and weather

sailwx.info

Track history (hours):
 
Tides and Currents Weather Stations Pressure Air Temp Water Temp Dewpoint Dewpoint Depression Visibility Wind Speed Wind Dir Waves Ship Positions

Daisinmaru No.11

Last reported at 2017-Feb-17 02:30 UTC. Time now 2017-Feb-22 06:43 UTC.
Position N 35°28' E 139°53'.

Length 52 m.

MMSI: 431000667.

Date/timePositionNaut miles runAvg speedWind from/ knotsBaromVisibWave heightAir tempDewpointWater temp
2017-Feb-17 02:30N 35°28' E 139°53'8 8.9
2017-Feb-17 01:34N 35°27' E 139°43'2 1.7
2017-Feb-17 00:33N 35°29' E 139°43'0 0.0
2017-Feb-16 23:33N 35°29' E 139°43'0 0.2
2017-Feb-16 22:33N 35°29' E 139°43'8 8.4
2017-Feb-16 21:33N 35°30' E 139°53'1 0.0
2017-Feb-16 02:29N 35°29' E 139°53'8 8.8
2017-Feb-16 01:34N 35°29' E 139°43'0 0.1
2017-Feb-16 00:33N 35°29' E 139°43'0 0.0
2017-Feb-15 23:33N 35°29' E 139°43'4 3.7
2017-Feb-15 22:33N 35°30' E 139°47'1 0.0
2017-Feb-14 06:33N 35°30' E 139°49'5 5.1
2017-Feb-14 05:34N 35°29' E 139°43'0 0.0
2017-Feb-14 04:34N 35°29' E 139°43'0 0.0
2017-Feb-14 03:34N 35°29' E 139°43'1 0.8
2017-Feb-14 02:34N 35°30' E 139°44'10 9.7
2017-Feb-14 01:33N 35°29' E 139°56'5 0.3
2017-Feb-13 06:33N 35°30' E 139°50'6 5.6
2017-Feb-13 05:33N 35°29' E 139°43'0 0.0
2017-Feb-13 04:33N 35°29' E 139°43'0 0.0
2017-Feb-13 03:33N 35°29' E 139°43'0 0.0
2017-Feb-13 02:33N 35°29' E 139°43'9 8.9
2017-Feb-13 01:33N 35°30' E 139°54'  
2017-Feb-09 04:11N 35°29' E 139°54'6 9.4
2017-Feb-09 03:33N 35°30' E 139°47'4 3.7
2017-Feb-09 02:33N 35°29' E 139°43'0 0.0
2017-Feb-09 01:33N 35°29' E 139°43'4 3.7
2017-Feb-09 00:33N 35°30' E 139°47'0 0.0
2017-Feb-08 06:33N 35°30' E 139°48'4 4.0
2017-Feb-08 05:33N 35°29' E 139°43'0 0.0
2017-Feb-08 04:33N 35°29' E 139°43'0 0.0
2017-Feb-08 03:33N 35°29' E 139°43'6 5.7
2017-Feb-08 02:33N 35°30' E 139°50'  
Track history (hours):
 
Tides and Currents Weather Stations Pressure Air Temp Water Temp Dewpoint Dewpoint Depression Visibility Wind Speed Wind Dir Waves Ship Positions

Daisinmaru No.11

Last reported at 2017-Feb-17 02:30 UTC. Time now 2017-Feb-22 06:43 UTC.
Position N 35°28' E 139°53'.

Length 52 m.

MMSI: 431000667.

Date/timePositionNaut miles runAvg speedWind from/ knotsBaromVisibWave heightAir tempDewpointWater temp
2017-Feb-17 02:30N 35°28' E 139°53'8 8.9
2017-Feb-17 01:34N 35°27' E 139°43'2 1.7
2017-Feb-17 00:33N 35°29' E 139°43'0 0.0
2017-Feb-16 23:33N 35°29' E 139°43'0 0.2
2017-Feb-16 22:33N 35°29' E 139°43'8 8.4
2017-Feb-16 21:33N 35°30' E 139°53'1 0.0
2017-Feb-16 02:29N 35°29' E 139°53'8 8.8
2017-Feb-16 01:34N 35°29' E 139°43'0 0.1
2017-Feb-16 00:33N 35°29' E 139°43'0 0.0
2017-Feb-15 23:33N 35°29' E 139°43'4 3.7
2017-Feb-15 22:33N 35°30' E 139°47'1 0.0
2017-Feb-14 06:33N 35°30' E 139°49'5 5.1
2017-Feb-14 05:34N 35°29' E 139°43'0 0.0
2017-Feb-14 04:34N 35°29' E 139°43'0 0.0
2017-Feb-14 03:34N 35°29' E 139°43'1 0.8
2017-Feb-14 02:34N 35°30' E 139°44'10 9.7
2017-Feb-14 01:33N 35°29' E 139°56'5 0.3
2017-Feb-13 06:33N 35°30' E 139°50'6 5.6
2017-Feb-13 05:33N 35°29' E 139°43'0 0.0
2017-Feb-13 04:33N 35°29' E 139°43'0 0.0
2017-Feb-13 03:33N 35°29' E 139°43'0 0.0
2017-Feb-13 02:33N 35°29' E 139°43'9 8.9
2017-Feb-13 01:33N 35°30' E 139°54'  
2017-Feb-09 04:11N 35°29' E 139°54'6 9.4
2017-Feb-09 03:33N 35°30' E 139°47'4 3.7
2017-Feb-09 02:33N 35°29' E 139°43'0 0.0
2017-Feb-09 01:33N 35°29' E 139°43'4 3.7
2017-Feb-09 00:33N 35°30' E 139°47'0 0.0
2017-Feb-08 06:33N 35°30' E 139°48'4 4.0
2017-Feb-08 05:33N 35°29' E 139°43'0 0.0
2017-Feb-08 04:33N 35°29' E 139°43'0 0.0
2017-Feb-08 03:33N 35°29' E 139°43'6 5.7
2017-Feb-08 02:33N 35°30' E 139°50'  

Dump ship's entire track history